createdAt,value
2018-12-04T00:04:31.487Z,10.9
2018-12-04T00:09:54.375Z,9.6
2018-12-04T00:15:17.156Z,9.7
2018-12-04T00:20:39.987Z,11.5
2018-12-04T00:26:02.599Z,10.8
2018-12-04T00:31:25.773Z,13.9
2018-12-04T00:36:48.473Z,12.7
2018-12-04T00:42:11.571Z,12.6
2018-12-04T00:47:34.367Z,12.5
2018-12-04T00:52:56.995Z,11.6
2018-12-04T00:58:19.742Z,11.9
2018-12-04T01:03:42.382Z,11.8
2018-12-04T01:09:05.020Z,14.6
2018-12-04T01:14:27.762Z,15.5
2018-12-04T01:19:50.453Z,14.5
2018-12-04T01:25:13.724Z,13.3
2018-12-04T01:30:37.225Z,13.4
2018-12-04T01:36:00.005Z,16.299999
2018-12-04T01:41:22.690Z,11.4
2018-12-04T01:46:45.296Z,11.2
2018-12-04T01:52:07.937Z,14.6
2018-12-04T01:57:30.605Z,10.3
2018-12-04T02:03:00.203Z,12.9
2018-12-04T02:08:22.922Z,14.9
2018-12-04T02:13:45.536Z,15.2
2018-12-04T02:19:08.164Z,14
2018-12-04T02:24:30.824Z,14.5
2018-12-04T02:29:53.605Z,18.1
2018-12-04T02:35:16.344Z,19
2018-12-04T02:40:39.024Z,14.5
2018-12-04T02:46:01.681Z,11.3
2018-12-04T02:51:24.625Z,15.1
2018-12-04T02:56:47.496Z,9.4
2018-12-04T03:02:10.259Z,13.4
2018-12-04T03:07:33.030Z,13.1
2018-12-04T03:12:55.689Z,15.7
2018-12-04T03:18:18.384Z,15.4
2018-12-04T03:23:40.129Z,14
2018-12-04T03:29:02.850Z,12.5
2018-12-04T03:34:25.560Z,12.8
2018-12-04T03:39:48.814Z,9.7
2018-12-04T03:45:11.534Z,16
2018-12-04T03:50:34.294Z,13.2
2018-12-04T03:55:56.935Z,13.2
2018-12-04T04:01:19.651Z,9.7
2018-12-04T04:06:42.532Z,12
2018-12-04T04:12:05.290Z,15.2
2018-12-04T04:17:27.936Z,13.6
2018-12-04T04:22:50.648Z,12.4
2018-12-04T04:28:13.242Z,12.3
2018-12-04T04:33:35.926Z,13.5
2018-12-04T04:38:59.497Z,15.2
2018-12-04T04:44:22.226Z,12.1
2018-12-04T04:49:48.006Z,13.6
2018-12-04T04:55:10.682Z,14.3
2018-12-04T05:00:33.500Z,11.8
2018-12-04T05:05:56.275Z,13.8
2018-12-04T05:11:19.154Z,14.3
2018-12-04T05:16:41.879Z,16.1
2018-12-04T05:22:04.538Z,13.8
2018-12-04T05:27:27.379Z,13.3
2018-12-04T05:32:50.182Z,16.1
2018-12-04T05:38:13.158Z,15.6
2018-12-04T05:43:35.799Z,17.799999
2018-12-04T05:48:59.282Z,15.9
2018-12-04T05:54:23.900Z,15.2
2018-12-04T05:59:47.200Z,14
2018-12-04T06:05:10.015Z,13.6
2018-12-04T06:10:32.891Z,16
2018-12-04T06:15:56.361Z,19.799999
2018-12-04T06:21:19.041Z,16.700001
2018-12-04T06:26:41.734Z,16.1
2018-12-04T06:32:04.421Z,26.799999
2018-12-04T06:37:27.822Z,26.4
2018-12-04T06:42:50.591Z,20.1
2018-12-04T06:48:14.943Z,18.5
2018-12-04T06:53:38.891Z,17.700001
2018-12-04T06:59:01.659Z,18.5
2018-12-04T07:04:24.471Z,11
2018-12-04T07:09:47.165Z,13.1
2018-12-04T07:15:10.648Z,16.700001
2018-12-04T07:20:34.059Z,17.1
2018-12-04T07:26:01.166Z,12.1
2018-12-04T07:31:23.844Z,23
2018-12-04T07:36:47.225Z,16
2018-12-04T07:42:10.807Z,12.7
2018-12-04T07:47:34.310Z,11.2
2018-12-04T07:52:57.136Z,20.200001
2018-12-04T07:58:19.794Z,21.299999
2018-12-04T08:03:42.516Z,17.5
2018-12-04T08:09:05.295Z,21
2018-12-04T08:14:28.049Z,20.299999
2018-12-04T08:19:57.031Z,12.5
2018-12-04T08:25:19.765Z,18.5
2018-12-04T08:30:42.426Z,18
2018-12-04T08:36:05.057Z,13.6
2018-12-04T08:41:28.433Z,17.200001
2018-12-04T08:46:52.139Z,12.6
2018-12-04T08:52:14.839Z,18.1
2018-12-04T08:57:37.634Z,13.6
2018-12-04T09:03:01.584Z,16.9
2018-12-04T09:08:24.525Z,15.1
2018-12-04T09:13:47.767Z,14.7
2018-12-04T09:19:11.707Z,10.4
2018-12-04T09:24:34.346Z,11.4
2018-12-04T09:29:57.113Z,13.8
2018-12-04T09:35:20.434Z,12.3
2018-12-04T09:40:43.171Z,18.6
2018-12-04T09:46:06.027Z,13.8
2018-12-04T09:51:29.197Z,11
2018-12-04T09:56:55.112Z,9.5
2018-12-04T10:02:18.268Z,11.4
2018-12-04T10:07:40.966Z,14
2018-12-04T10:13:03.995Z,8
2018-12-04T10:18:27.223Z,10.2
2018-12-04T10:23:50.011Z,10.2
2018-12-04T10:29:12.965Z,13.8
2018-12-04T10:34:35.690Z,11.3
2018-12-04T10:39:58.430Z,9.1
2018-12-04T10:45:21.152Z,8.9
2018-12-04T10:50:43.895Z,14
2018-12-04T10:56:06.635Z,10.3
2018-12-04T11:01:29.296Z,9.7
2018-12-04T11:06:52.026Z,12.4
2018-12-04T11:12:14.717Z,11.4
2018-12-04T11:17:37.512Z,11.8
2018-12-04T11:23:00.212Z,8.3
2018-12-04T11:28:23.935Z,10
2018-12-04T11:33:46.576Z,11.2
2018-12-04T11:39:09.303Z,7.4
2018-12-04T11:44:32.681Z,8.7
2018-12-04T11:49:55.312Z,7.4
2018-12-04T11:55:18.067Z,14
2018-12-04T12:00:40.924Z,8.6
2018-12-04T12:06:03.690Z,9.9
2018-12-04T12:11:26.395Z,11.3
2018-12-04T12:16:49.069Z,11.8
2018-12-04T12:22:12.754Z,8.9
2018-12-04T12:27:35.539Z,8.8
2018-12-04T12:32:58.319Z,8.7
2018-12-04T12:38:20.945Z,9.1
2018-12-04T12:43:44.499Z,9.9
2018-12-04T12:49:07.256Z,10.4
2018-12-04T12:54:29.897Z,10.7
2018-12-04T12:59:52.573Z,8.2
2018-12-04T13:05:15.211Z,9.1
2018-12-04T13:10:38.095Z,7.8
2018-12-04T13:16:01.281Z,7.4
2018-12-04T13:21:23.920Z,14.6
2018-12-04T13:26:46.577Z,8.7
2018-12-04T13:32:09.269Z,12.8
2018-12-04T13:37:31.924Z,13.5
2018-12-04T13:42:54.841Z,12
2018-12-04T13:48:17.662Z,10.6
2018-12-04T13:53:40.404Z,11.3
2018-12-04T13:59:03.065Z,9.2
2018-12-04T14:04:27.964Z,13.2
2018-12-04T14:09:50.662Z,12.4
2018-12-04T14:15:13.297Z,9.1
2018-12-04T14:20:36.112Z,8.1
2018-12-04T14:25:59.833Z,8.3
2018-12-04T14:31:22.625Z,9.9
2018-12-04T14:36:45.534Z,9.8
2018-12-04T14:42:09.132Z,9.4
2018-12-04T14:47:31.887Z,10.1
2018-12-04T14:52:54.578Z,7.9
2018-12-04T14:58:17.347Z,10.8
2018-12-04T15:03:40.004Z,13
2018-12-04T15:09:02.847Z,10.9
2018-12-04T15:14:25.585Z,9.2
2018-12-04T15:19:48.448Z,7.9
2018-12-04T15:25:12.148Z,10.9
2018-12-04T15:30:34.898Z,8.1
2018-12-04T15:35:57.612Z,8.9
2018-12-04T15:41:20.252Z,8.8
2018-12-04T15:46:43.054Z,12.2
2018-12-04T15:52:05.724Z,12.5
2018-12-04T15:57:28.466Z,15.6
2018-12-04T16:02:51.141Z,11.2
2018-12-04T16:08:13.841Z,12.3
2018-12-04T16:13:36.508Z,11
2018-12-04T16:18:59.205Z,14.3
2018-12-04T16:24:22.978Z,13.8
2018-12-04T16:29:45.557Z,16
2018-12-04T16:35:08.349Z,16.299999
2018-12-04T16:40:31.004Z,12.5
2018-12-04T16:45:53.698Z,10.7
2018-12-04T16:51:16.471Z,9.6
2018-12-04T16:56:39.160Z,13.2
2018-12-04T17:02:01.851Z,11
2018-12-04T17:07:24.538Z,10.9
2018-12-04T17:12:47.393Z,12.3
2018-12-04T17:18:10.035Z,11.5
2018-12-04T17:23:32.703Z,16.700001
2018-12-04T17:28:55.380Z,13.4
2018-12-04T17:34:18.097Z,15.1
2018-12-04T17:39:40.800Z,10
2018-12-04T17:45:03.516Z,11.8
2018-12-04T17:50:26.241Z,13.1
2018-12-04T17:55:49.078Z,12.2
2018-12-04T18:01:11.921Z,11.9
2018-12-04T18:06:34.655Z,13.6
2018-12-04T18:11:58.220Z,9.8
2018-12-04T18:17:21.292Z,11.3
2018-12-04T18:22:43.956Z,6.6
2018-12-04T18:28:06.794Z,12.9
2018-12-04T18:33:29.505Z,14.3
2018-12-04T18:38:52.383Z,9.7
2018-12-04T18:44:15.083Z,11.8
2018-12-04T18:49:37.798Z,15.5
2018-12-04T18:55:00.604Z,12.8
2018-12-04T19:00:23.254Z,15.1
2018-12-04T19:05:45.974Z,11.2
2018-12-04T19:11:08.586Z,13.3
2018-12-04T19:16:31.347Z,9.1
2018-12-04T19:21:54.175Z,13.1
2018-12-04T19:27:17.223Z,15.4
2018-12-04T19:32:40.271Z,11.3
2018-12-04T19:38:03.391Z,14.3
2018-12-04T19:43:26.634Z,17.700001
2018-12-04T19:48:49.482Z,19.200001
2018-12-04T19:54:13.141Z,18.6
2018-12-04T19:59:46.526Z,14.4
2018-12-04T20:05:12.879Z,15.6
2018-12-04T20:10:38.588Z,13.3
2018-12-04T20:16:19.109Z,19.5
2018-12-04T20:22:02.410Z,21.6
2018-12-04T20:27:27.489Z,14.2
2018-12-04T20:32:59.761Z,22.9
2018-12-04T20:38:31.757Z,25
2018-12-04T20:43:57.510Z,23.1
2018-12-04T20:49:21.077Z,20.299999
2018-12-04T20:54:43.936Z,20.6
2018-12-04T21:00:08.493Z,17.299999
2018-12-04T21:05:32.557Z,21.1
2018-12-04T21:10:55.243Z,21.1
2018-12-04T21:16:18.124Z,21.1
2018-12-04T21:21:42.655Z,21.799999
2018-12-04T21:27:11.389Z,21
2018-12-04T21:32:29.033Z,18.5
2018-12-04T21:37:50.897Z,25.4
2018-12-04T21:43:14.047Z,22
2018-12-04T21:48:36.924Z,28.9
2018-12-04T21:53:59.593Z,24.6
2018-12-04T21:59:22.324Z,24.5
2018-12-04T22:04:45.159Z,23.1
2018-12-04T22:10:08.078Z,26.700001
2018-12-04T22:15:30.891Z,25.9
2018-12-04T22:20:53.702Z,29.299999
2018-12-04T22:26:16.493Z,24.4
2018-12-04T22:31:39.135Z,26.6
2018-12-04T22:37:01.828Z,25.299999
2018-12-04T22:42:25.187Z,31.700001
2018-12-04T22:47:48.064Z,26.9
2018-12-04T22:53:10.738Z,29.6
2018-12-04T22:58:33.432Z,31
2018-12-04T23:03:56.170Z,29.1
2018-12-04T23:09:19.933Z,22.6
2018-12-04T23:14:42.653Z,30.6
2018-12-04T23:20:05.528Z,24.200001
2018-12-04T23:25:28.197Z,27.9
2018-12-04T23:30:50.948Z,24
2018-12-04T23:36:13.719Z,37.099998
2018-12-04T23:41:36.488Z,41.900002
2018-12-04T23:46:59.203Z,31.5
2018-12-04T23:52:21.915Z,36.799999
2018-12-04T23:57:44.755Z,45.900002
